createdAt,value
2022-10-25T00:44:40.521Z,73.40
2022-10-25T01:20:10.727Z,78.90
2022-10-25T01:23:04.304Z,78.40
2022-10-25T01:26:12.695Z,78.00
2022-10-25T07:50:50.797Z,62.00
2022-10-25T07:55:54.704Z,61.90
2022-10-25T07:58:21.749Z,62.00
2022-10-25T08:03:17.228Z,61.90
2022-10-25T08:05:48.157Z,62.10
2022-10-25T08:08:15.350Z,63.90
2022-10-25T08:10:43.607Z,61.80
2022-10-25T08:13:11.056Z,63.10
2022-10-25T08:15:40.666Z,63.90
2022-10-25T08:18:07.909Z,61.80
2022-10-25T08:21:00.558Z,61.70
2022-10-25T08:23:21.652Z,64.00
2022-10-25T08:25:48.348Z,61.60
2022-10-25T08:28:15.192Z,61.70
2022-10-25T08:30:41.949Z,63.00
2022-10-25T08:33:11.650Z,63.50
2022-10-25T08:35:39.139Z,62.60
2022-10-25T08:38:06.118Z,61.50
2022-10-25T08:40:40.946Z,61.50
2022-10-25T08:43:13.269Z,61.40
2022-10-25T08:45:51.479Z,62.10
2022-10-25T08:48:22.089Z,61.40
2022-10-25T08:50:52.538Z,61.50
2022-10-25T08:53:42.424Z,61.30
2022-10-25T08:56:17.295Z,62.20
2022-10-25T08:58:50.793Z,63.90
2022-10-25T09:01:24.051Z,62.50
2022-10-25T09:03:50.955Z,62.90
2022-10-25T09:06:41.179Z,64.10
2022-10-25T09:09:17.577Z,61.90
2022-10-25T09:11:44.219Z,61.10
2022-10-25T09:14:50.711Z,62.70
2022-10-25T09:17:22.726Z,61.40
2022-10-25T09:20:15.753Z,62.30
2022-10-25T09:23:00.521Z,61.50
2022-10-25T09:25:55.436Z,61.30
2022-10-25T09:29:01.418Z,61.90
2022-10-25T09:31:31.068Z,61.90
2022-10-25T09:34:04.222Z,61.30
2022-10-25T09:36:50.064Z,61.40
2022-10-25T09:39:40.348Z,61.30
2022-10-25T09:42:17.418Z,61.40
2022-10-25T09:44:54.265Z,61.30
2022-10-25T09:47:30.311Z,61.30
2022-10-25T09:50:06.753Z,61.30
2022-10-25T09:55:45.121Z,62.20
2022-10-25T09:58:28.076Z,62.00
2022-10-25T10:00:57.174Z,61.90
2022-10-25T10:03:29.140Z,64.60
2022-10-25T10:06:00.219Z,61.30
2022-10-25T10:08:28.373Z,63.10
2022-10-25T10:10:56.295Z,61.60
2022-10-25T10:13:34.152Z,61.30
2022-10-25T10:16:14.174Z,61.40
2022-10-25T10:18:41.188Z,61.90
2022-10-25T10:21:10.983Z,61.30
2022-10-25T10:23:43.784Z,63.30
2022-10-25T10:26:21.461Z,61.40
2022-10-25T10:28:50.826Z,61.90
2022-10-25T10:31:19.250Z,62.20
2022-10-25T10:33:52.338Z,61.30
2022-10-25T10:36:23.798Z,61.30
2022-10-25T10:38:50.926Z,61.30
2022-10-25T10:41:28.428Z,62.60
2022-10-25T10:44:13.782Z,61.20
2022-10-25T10:46:46.071Z,61.20
2022-10-25T10:49:14.397Z,62.10
2022-10-25T10:51:45.123Z,61.30
2022-10-25T10:54:22.698Z,62.70
2022-10-25T10:57:06.738Z,62.70
2022-10-25T10:59:44.423Z,61.20
2022-10-25T11:02:20.290Z,61.20
2022-10-25T11:04:55.339Z,61.20
2022-10-25T11:07:30.595Z,62.00
2022-10-25T11:10:28.523Z,63.40
2022-10-25T11:13:05.658Z,61.80
2022-10-25T11:15:46.539Z,61.20
2022-10-25T11:18:14.810Z,61.80
2022-10-25T11:21:06.895Z,61.20
2022-10-25T11:23:42.806Z,61.80
2022-10-25T11:26:46.983Z,61.10
2022-10-25T11:29:31.785Z,61.10
2022-10-25T11:32:16.623Z,61.80
2022-10-25T11:35:07.193Z,61.80
2022-10-25T11:37:42.414Z,61.00
2022-10-25T11:40:18.489Z,61.10
2022-10-25T11:43:03.826Z,62.10
2022-10-25T11:45:48.426Z,61.70
2022-10-25T11:49:06.419Z,61.00
2022-10-25T11:54:36.222Z,60.90
2022-10-25T11:57:30.620Z,61.70
2022-10-25T12:00:15.357Z,61.70
2022-10-25T12:02:51.975Z,61.70
2022-10-25T12:05:25.723Z,61.60
2022-10-25T12:08:14.106Z,62.40
2022-10-25T12:10:54.532Z,61.50
2022-10-25T12:13:27.491Z,61.60
2022-10-25T12:15:56.368Z,61.50
2022-10-25T12:18:31.772Z,62.60
2022-10-25T12:20:59.075Z,60.90
2022-10-25T12:23:28.341Z,62.00
2022-10-25T12:26:00.297Z,60.80
2022-10-25T12:28:32.908Z,64.00
2022-10-25T12:31:11.367Z,60.90
2022-10-25T12:33:40.828Z,60.80
2022-10-25T12:36:16.575Z,63.30
2022-10-25T12:38:43.358Z,60.70
2022-10-25T12:41:19.598Z,62.00
2022-10-25T12:44:07.639Z,60.80
2022-10-25T12:49:41.808Z,60.70
2022-10-25T12:52:30.644Z,61.40
2022-10-25T12:55:08.787Z,61.30
2022-10-25T12:57:48.275Z,60.80
2022-10-25T13:03:00.719Z,60.70
2022-10-25T13:05:28.094Z,61.30
2022-10-25T13:07:58.813Z,60.60
2022-10-25T13:13:06.486Z,63.20
2022-10-25T13:15:55.211Z,60.60
2022-10-25T13:18:34.022Z,61.20
2022-10-25T13:21:03.160Z,61.10
2022-10-25T13:23:51.448Z,62.00
2022-10-25T13:26:21.074Z,60.50
2022-10-25T13:28:53.147Z,63.70
2022-10-25T13:31:34.879Z,61.10
2022-10-25T13:34:13.602Z,60.60
2022-10-25T13:36:51.548Z,62.80
2022-10-25T13:39:30.815Z,62.80
2022-10-25T13:42:09.845Z,61.30
2022-10-25T13:44:55.900Z,60.20
2022-10-25T13:48:04.460Z,60.70
2022-10-25T13:50:41.280Z,60.50
2022-10-25T13:53:32.436Z,62.20
2022-10-25T13:56:12.492Z,60.40
2022-10-25T13:58:44.631Z,59.80
2022-10-25T14:01:17.748Z,60.30
2022-10-25T14:04:03.524Z,63.10
2022-10-25T14:06:35.323Z,60.10
2022-10-25T14:09:08.594Z,59.50
2022-10-25T14:11:51.632Z,59.50
2022-10-25T14:14:34.097Z,61.00
2022-10-25T14:17:22.443Z,60.00
2022-10-25T14:19:56.249Z,60.00
2022-10-25T14:22:52.171Z,60.80
2022-10-25T14:25:36.878Z,59.50
2022-10-25T14:28:23.947Z,60.00
2022-10-25T14:30:54.188Z,59.40
2022-10-25T14:33:37.904Z,60.10
2022-10-25T14:36:27.247Z,60.00
2022-10-25T14:38:56.408Z,59.80
2022-10-25T14:41:35.251Z,60.40
2022-10-25T14:44:02.904Z,59.90
2022-10-25T14:46:30.535Z,62.00
2022-10-25T14:48:59.072Z,62.30
2022-10-25T14:51:31.103Z,60.40
2022-10-25T14:54:05.182Z,63.10
2022-10-25T14:56:33.288Z,59.10
2022-10-25T14:59:01.549Z,59.20
2022-10-25T15:01:28.736Z,59.10
2022-10-25T15:03:59.294Z,61.40
2022-10-25T15:06:29.635Z,60.00
2022-10-25T15:09:16.191Z,59.10
2022-10-25T15:12:06.959Z,59.60
2022-10-25T15:14:34.091Z,60.30
2022-10-25T15:17:02.807Z,59.20
2022-10-25T15:19:29.514Z,60.00
2022-10-25T15:22:08.101Z,61.50
2022-10-25T15:24:44.719Z,59.30
2022-10-25T15:27:26.386Z,59.30
2022-10-25T15:29:54.250Z,59.30
2022-10-25T15:32:23.446Z,62.30
2022-10-25T15:34:53.109Z,59.90
2022-10-25T15:37:21.583Z,59.10
2022-10-25T15:39:50.544Z,59.20
2022-10-25T15:42:18.111Z,59.80
2022-10-25T15:44:45.439Z,59.10
2022-10-25T15:47:30.685Z,60.20
2022-10-25T15:49:58.476Z,59.70
2022-10-25T15:52:25.649Z,61.40
2022-10-25T15:54:52.517Z,59.20
2022-10-25T15:57:19.318Z,63.00
2022-10-25T15:59:46.085Z,59.30
2022-10-25T16:02:23.008Z,60.00
2022-10-25T16:04:49.754Z,59.80
2022-10-25T16:07:16.601Z,59.90
2022-10-25T16:09:43.574Z,61.80
2022-10-25T16:12:18.131Z,60.70
2022-10-25T16:14:45.446Z,59.90
2022-10-25T16:17:13.785Z,60.50
2022-10-25T16:19:41.117Z,60.90
2022-10-25T16:22:07.796Z,60.30
2022-10-25T16:24:34.517Z,59.30
2022-10-25T16:27:01.395Z,59.30
2022-10-25T16:29:28.186Z,59.30
2022-10-25T16:31:55.051Z,59.30
2022-10-25T16:34:22.618Z,61.70
2022-10-25T16:36:50.483Z,59.30
2022-10-25T16:39:17.397Z,60.30
2022-10-25T16:41:45.946Z,60.90
2022-10-25T16:44:15.463Z,59.30
2022-10-25T16:46:42.311Z,59.30
2022-10-25T16:49:09.413Z,60.30
2022-10-25T16:51:37.459Z,62.20
2022-10-25T16:54:04.480Z,61.50
2022-10-25T16:56:31.565Z,60.50
2022-10-25T16:58:58.307Z,59.40
2022-10-25T17:01:34.227Z,59.30
2022-10-25T17:04:02.806Z,60.10
2022-10-25T17:06:40.770Z,60.20
2022-10-25T17:09:08.704Z,60.00
2022-10-25T17:11:36.225Z,60.30
2022-10-25T17:14:03.094Z,62.50
2022-10-25T17:16:29.932Z,60.60
2022-10-25T17:18:57.212Z,61.10
2022-10-25T17:21:24.136Z,59.30
2022-10-25T17:23:50.846Z,59.30
2022-10-25T17:26:17.637Z,59.30
2022-10-25T17:28:44.637Z,60.10
2022-10-25T17:31:13.498Z,59.20
2022-10-25T17:33:42.359Z,59.90
2022-10-25T17:36:12.638Z,59.30
2022-10-25T17:38:39.914Z,59.90
2022-10-25T17:41:06.909Z,59.90
2022-10-25T17:43:41.308Z,59.20
2022-10-25T17:46:13.685Z,59.30
2022-10-25T17:48:40.420Z,59.30
2022-10-25T17:51:10.511Z,60.50
2022-10-25T17:53:37.636Z,59.20
2022-10-25T17:56:16.389Z,60.70
2022-10-25T17:58:44.931Z,59.20
2022-10-25T18:01:14.458Z,59.90
2022-10-25T18:03:41.295Z,59.20
2022-10-25T18:06:12.946Z,59.10
2022-10-25T18:08:39.826Z,59.10
2022-10-25T18:11:15.375Z,59.10
2022-10-25T18:13:42.406Z,60.70
2022-10-25T18:16:10.457Z,59.30
2022-10-25T18:18:37.982Z,59.10
2022-10-25T18:21:06.754Z,59.10
2022-10-25T18:23:33.635Z,59.80
2022-10-25T18:26:00.599Z,59.10
2022-10-25T18:28:28.219Z,59.10
2022-10-25T18:31:09.597Z,59.10
2022-10-25T18:33:38.249Z,59.00
2022-10-25T18:36:27.349Z,59.00
2022-10-25T18:38:54.628Z,59.50
2022-10-25T18:41:26.651Z,59.00
2022-10-25T18:43:54.825Z,59.10
2022-10-25T18:46:22.201Z,59.00
2022-10-25T18:48:52.746Z,59.00
2022-10-25T18:51:21.579Z,58.90
2022-10-25T18:53:48.726Z,59.40
2022-10-25T18:56:19.612Z,61.00
2022-10-25T18:58:49.171Z,60.90
2022-10-25T19:01:20.382Z,60.10
2022-10-25T19:03:47.313Z,61.40
2022-10-25T19:06:14.464Z,59.00
2022-10-25T19:08:41.426Z,60.70
2022-10-25T19:11:10.473Z,60.10
2022-10-25T19:13:37.538Z,59.00
2022-10-25T19:18:33.310Z,58.90
2022-10-25T19:21:02.011Z,59.00
2022-10-25T19:23:29.529Z,58.90
2022-10-25T19:25:56.810Z,59.00
2022-10-25T19:28:23.483Z,61.90
2022-10-25T19:30:50.179Z,62.60
2022-10-25T19:33:16.855Z,58.90
2022-10-25T19:35:43.641Z,59.00
2022-10-25T19:38:10.330Z,59.00
2022-10-25T19:40:37.091Z,59.00
2022-10-25T19:43:03.818Z,61.20
2022-10-25T19:45:30.579Z,59.00
2022-10-25T19:47:58.908Z,59.00
2022-10-25T19:50:25.759Z,61.80
2022-10-25T19:52:52.571Z,60.00
2022-10-25T19:55:19.317Z,59.00
2022-10-25T19:57:46.360Z,58.90
2022-10-25T20:00:13.852Z,59.10
2022-10-25T20:02:40.658Z,60.20
2022-10-25T20:05:07.748Z,58.90
2022-10-25T20:07:34.607Z,60.00
2022-10-25T20:10:01.368Z,59.10
2022-10-25T20:12:30.385Z,62.40
2022-10-25T20:14:57.866Z,62.30
2022-10-25T20:17:24.739Z,59.00
2022-10-25T20:19:51.626Z,59.00
2022-10-25T20:22:18.406Z,58.90
2022-10-25T20:24:45.043Z,59.10
2022-10-25T20:27:11.796Z,59.00
2022-10-25T20:29:39.923Z,60.60
2022-10-25T20:32:06.630Z,59.00
2022-10-25T20:34:35.066Z,61.40
2022-10-25T20:37:03.698Z,61.80
2022-10-25T20:39:30.632Z,59.00
2022-10-25T20:41:57.443Z,59.10
2022-10-25T20:46:51.461Z,59.00
2022-10-25T20:49:18.175Z,57.80
2022-10-25T20:51:44.843Z,59.00
2022-10-25T20:54:11.552Z,60.40
2022-10-25T20:56:39.224Z,59.00
2022-10-25T20:59:06.283Z,59.00
2022-10-25T21:01:33.098Z,59.20
2022-10-25T21:03:59.946Z,59.10
2022-10-25T21:06:26.706Z,59.90
2022-10-25T21:11:20.658Z,59.10
2022-10-25T21:13:47.299Z,59.00
2022-10-25T21:16:15.441Z,59.10
2022-10-25T21:18:43.430Z,59.10
2022-10-25T21:21:19.730Z,59.10
2022-10-25T21:23:47.200Z,59.70
2022-10-25T21:26:14.026Z,59.00
2022-10-25T21:28:41.650Z,60.50
2022-10-25T21:31:13.657Z,60.50
2022-10-25T21:33:49.646Z,59.20
2022-10-25T21:36:18.741Z,61.80
2022-10-25T21:38:45.642Z,59.70
2022-10-25T21:41:19.677Z,59.20
2022-10-25T21:43:50.904Z,59.70
2022-10-25T21:46:19.422Z,60.00
2022-10-25T21:48:52.660Z,60.50
2022-10-25T21:51:26.723Z,60.50
2022-10-25T21:53:54.931Z,61.30
2022-10-25T21:56:23.222Z,59.40
2022-10-25T22:01:20.617Z,59.30
2022-10-25T22:03:47.729Z,59.30
2022-10-25T22:06:17.258Z,60.40
2022-10-25T22:08:44.369Z,59.90
2022-10-25T22:11:14.593Z,61.00
2022-10-25T22:13:41.600Z,59.30
2022-10-25T22:16:17.246Z,60.70
2022-10-25T22:18:53.506Z,59.30
2022-10-25T22:21:21.194Z,59.30
2022-10-25T22:23:48.317Z,59.20
2022-10-25T22:26:17.938Z,59.30
2022-10-25T22:28:45.223Z,59.40
2022-10-25T22:31:14.343Z,60.50
2022-10-25T22:33:42.347Z,59.30
2022-10-25T22:36:19.686Z,59.30
2022-10-25T22:38:47.213Z,60.10
2022-10-25T22:41:16.353Z,59.30
2022-10-25T22:46:24.677Z,59.30
2022-10-25T22:48:53.646Z,60.30
2022-10-25T22:51:21.690Z,59.30
2022-10-25T22:53:48.782Z,60.40
2022-10-25T22:56:18.286Z,60.40
2022-10-25T22:58:50.651Z,60.50
2022-10-25T23:01:22.900Z,59.40
2022-10-25T23:03:54.266Z,61.80
2022-10-25T23:06:26.654Z,60.80
2022-10-25T23:08:58.019Z,59.80
2022-10-25T23:11:27.146Z,59.80
2022-10-25T23:13:54.234Z,62.30
2022-10-25T23:16:21.165Z,60.20
2022-10-25T23:18:47.867Z,59.30
2022-10-25T23:21:19.806Z,62.90
2022-10-25T23:23:46.950Z,60.50
2022-10-25T23:26:19.034Z,59.30
2022-10-25T23:28:45.815Z,59.90
2022-10-25T23:31:13.298Z,62.40
2022-10-25T23:33:41.698Z,59.40
2022-10-25T23:36:16.963Z,59.40
2022-10-25T23:38:44.036Z,60.50
2022-10-25T23:41:10.767Z,59.40
2022-10-25T23:43:37.572Z,59.40
2022-10-25T23:46:05.549Z,59.40
2022-10-25T23:48:32.695Z,60.10
2022-10-25T23:51:02.348Z,59.30
2022-10-25T23:53:29.820Z,59.30
2022-10-25T23:55:56.771Z,60.80
2022-10-25T23:58:23.981Z,59.30
